createdAt,value
2023-02-21T00:00:58.873Z,1.00
2023-02-21T00:03:44.361Z,0.90
2023-02-21T00:06:30.240Z,0.90
2023-02-21T00:09:15.671Z,1.50
2023-02-21T00:12:03.160Z,1.00
2023-02-21T00:14:48.503Z,1.00
2023-02-21T00:17:34.131Z,1.40
2023-02-21T00:20:19.336Z,1.10
2023-02-21T00:23:05.365Z,1.30
2023-02-21T00:25:50.881Z,0.80
2023-02-21T00:28:36.461Z,0.87
2023-02-21T00:31:24.107Z,0.80
2023-02-21T00:34:10.517Z,0.90
2023-02-21T00:36:56.625Z,0.80
2023-02-21T00:39:42.034Z,0.87
2023-02-21T00:42:27.181Z,0.80
2023-02-21T00:45:13.037Z,0.70
2023-02-21T00:47:58.465Z,0.80
2023-02-21T00:50:44.096Z,1.00
2023-02-21T00:53:29.379Z,1.10
2023-02-21T00:56:15.067Z,1.00
2023-02-21T00:59:00.409Z,0.73
2023-02-21T01:01:46.077Z,0.60
2023-02-21T01:04:31.469Z,0.80
2023-02-21T01:07:17.261Z,1.23
2023-02-21T01:10:02.420Z,0.93
2023-02-21T01:12:48.190Z,0.63
2023-02-21T01:15:34.040Z,1.00
2023-02-21T01:18:19.884Z,0.97
2023-02-21T01:21:05.386Z,1.53
2023-02-21T01:23:52.916Z,1.33
2023-02-21T01:26:38.573Z,1.07
2023-02-21T01:29:23.833Z,0.90
2023-02-21T01:32:10.177Z,1.50
2023-02-21T01:34:57.773Z,1.03
2023-02-21T01:37:43.335Z,1.13
2023-02-21T01:40:33.993Z,1.50
2023-02-21T01:43:20.526Z,1.30
2023-02-21T01:46:10.555Z,1.20
2023-02-21T01:48:56.340Z,1.13
2023-02-21T01:51:52.725Z,1.20
2023-02-21T01:54:40.308Z,1.67
2023-02-21T01:57:27.452Z,1.93
2023-02-21T02:00:16.744Z,1.70
2023-02-21T02:03:22.820Z,1.20
2023-02-21T02:06:16.873Z,1.40
2023-02-21T02:09:02.781Z,1.10
2023-02-21T02:12:20.974Z,1.43
2023-02-21T02:15:03.971Z,1.20
2023-02-21T02:17:57.398Z,2.13
2023-02-21T02:20:59.212Z,1.30
2023-02-21T02:23:57.946Z,1.10
2023-02-21T02:26:45.535Z,1.40
2023-02-21T02:29:40.223Z,2.00
2023-02-21T02:32:40.732Z,1.60
2023-02-21T02:35:23.076Z,1.67
2023-02-21T02:38:05.278Z,1.70
2023-02-21T02:40:47.052Z,2.20
2023-02-21T02:43:31.931Z,1.37
2023-02-21T02:46:09.807Z,2.53
2023-02-21T02:48:58.153Z,1.67
2023-02-21T02:51:26.749Z,1.53
2023-02-21T02:53:56.130Z,1.50
2023-02-21T02:56:28.738Z,1.70
2023-02-21T02:59:01.657Z,1.37
2023-02-21T03:01:45.118Z,1.37
2023-02-21T03:04:41.336Z,1.83
2023-02-21T03:07:55.404Z,1.37
2023-02-21T03:10:54.284Z,1.60
2023-02-21T03:13:51.357Z,2.30
2023-02-21T03:16:31.084Z,1.40
2023-02-21T03:19:12.680Z,1.50
2023-02-21T03:21:52.131Z,1.80
2023-02-21T03:24:20.853Z,1.80
2023-02-21T03:26:54.327Z,1.70
2023-02-21T03:29:42.503Z,2.30
2023-02-21T03:32:28.237Z,2.53
2023-02-21T03:34:56.192Z,2.40
2023-02-21T03:37:46.673Z,1.93
2023-02-21T03:40:23.842Z,1.83
2023-02-21T03:42:54.659Z,2.73
2023-02-21T03:45:22.241Z,2.60
2023-02-21T03:48:03.654Z,2.20
2023-02-21T03:50:31.864Z,2.30
2023-02-21T03:52:59.456Z,1.87
2023-02-21T03:55:26.394Z,1.90
2023-02-21T03:57:54.579Z,2.40
2023-02-21T04:00:21.877Z,2.20
2023-02-21T04:02:52.321Z,2.10
2023-02-21T04:05:33.240Z,2.57
2023-02-21T04:08:00.776Z,2.80
2023-02-21T04:10:27.754Z,2.40
2023-02-21T04:12:55.729Z,2.90
2023-02-21T04:15:22.880Z,2.30
2023-02-21T04:17:49.784Z,2.57
2023-02-21T04:20:16.941Z,2.87
2023-02-21T04:23:02.882Z,2.27
2023-02-21T04:25:31.458Z,1.80
2023-02-21T04:28:03.625Z,2.50
2023-02-21T04:30:31.236Z,2.80
2023-02-21T04:32:58.447Z,2.40
2023-02-21T04:35:25.992Z,2.70
2023-02-21T04:37:54.333Z,1.83
2023-02-21T04:40:21.299Z,2.50
2023-02-21T04:42:48.262Z,2.60
2023-02-21T04:45:15.165Z,2.47
2023-02-21T04:47:42.059Z,2.77
2023-02-21T04:50:09.136Z,3.17
2023-02-21T04:52:36.037Z,2.87
2023-02-21T04:55:02.910Z,2.83
2023-02-21T04:57:29.805Z,2.40
2023-02-21T04:59:58.773Z,2.57
2023-02-21T05:02:27.126Z,2.93
2023-02-21T05:04:54.336Z,3.37
2023-02-21T05:07:21.262Z,2.73
2023-02-21T05:09:48.133Z,2.50
2023-02-21T05:12:15.173Z,2.70
2023-02-21T05:14:42.133Z,3.50
2023-02-21T05:17:09.698Z,2.80
2023-02-21T05:19:36.730Z,3.23
2023-02-21T05:22:07.120Z,3.13
2023-02-21T05:24:35.321Z,3.10
2023-02-21T05:27:02.324Z,2.50
2023-02-21T05:29:29.657Z,1.93
2023-02-21T05:31:56.627Z,3.00
2023-02-21T05:34:23.536Z,4.63
2023-02-21T05:36:50.440Z,4.47
2023-02-21T05:39:17.406Z,3.97
2023-02-21T05:41:51.224Z,2.93
2023-02-21T05:44:18.550Z,3.20
2023-02-21T05:46:46.029Z,2.97
2023-02-21T05:49:13.328Z,3.33
2023-02-21T05:51:43.739Z,3.00
2023-02-21T05:54:16.983Z,3.73
2023-02-21T05:56:46.901Z,4.13
2023-02-21T05:59:15.384Z,4.20
2023-02-21T06:01:42.502Z,3.67
2023-02-21T06:04:09.432Z,3.07
2023-02-21T06:06:36.918Z,3.20
2023-02-21T06:09:05.131Z,3.30
2023-02-21T06:11:35.036Z,4.07
2023-02-21T06:14:05.418Z,4.30
2023-02-21T06:16:39.038Z,4.30
2023-02-21T06:19:08.696Z,3.80
2023-02-21T06:21:35.943Z,2.70
2023-02-21T06:24:03.799Z,4.37
2023-02-21T06:26:30.966Z,3.73
2023-02-21T06:28:57.927Z,2.73
2023-02-21T06:31:25.297Z,4.30
2023-02-21T06:33:52.385Z,3.90
2023-02-21T06:36:23.739Z,3.50
2023-02-21T06:38:53.023Z,4.37
2023-02-21T06:41:27.119Z,3.53
2023-02-21T06:43:56.042Z,4.33
2023-02-21T06:46:26.449Z,4.10
2023-02-21T06:48:53.810Z,3.53
2023-02-21T06:51:20.963Z,3.40
2023-02-21T06:53:50.604Z,3.10
2023-02-21T06:56:17.603Z,3.70
2023-02-21T06:58:44.669Z,3.33
2023-02-21T07:01:11.597Z,3.87
2023-02-21T07:03:43.253Z,3.50
2023-02-21T07:06:10.698Z,4.97
2023-02-21T07:08:37.633Z,5.20
2023-02-21T07:11:05.764Z,4.20
2023-02-21T07:13:33.838Z,6.17
2023-02-21T07:16:02.268Z,4.20
2023-02-21T07:18:29.301Z,3.93
2023-02-21T07:20:56.193Z,4.90
2023-02-21T07:23:23.083Z,3.43
2023-02-21T07:25:50.052Z,4.03
2023-02-21T07:28:18.020Z,3.90
2023-02-21T07:30:45.045Z,4.40
2023-02-21T07:33:11.964Z,4.67
2023-02-21T07:35:38.883Z,3.80
2023-02-21T07:38:05.795Z,4.70
2023-02-21T07:40:33.433Z,4.00
2023-02-21T07:43:00.551Z,4.63
2023-02-21T07:45:27.564Z,5.17
2023-02-21T07:47:54.543Z,5.00
2023-02-21T07:50:23.649Z,4.50
2023-02-21T07:52:50.505Z,5.77
2023-02-21T07:55:17.452Z,4.40
2023-02-21T07:57:45.475Z,4.53
2023-02-21T08:00:12.739Z,4.00
2023-02-21T08:02:48.964Z,6.87
2023-02-21T08:05:17.716Z,4.50
2023-02-21T08:07:44.982Z,4.33
2023-02-21T08:10:15.629Z,6.70
2023-02-21T08:12:43.517Z,6.47
2023-02-21T08:15:10.580Z,5.47
2023-02-21T08:17:37.488Z,4.87
2023-02-21T08:20:06.585Z,5.27
2023-02-21T08:22:33.637Z,5.60
2023-02-21T08:25:00.578Z,5.00
2023-02-21T08:27:27.472Z,5.40
2023-02-21T08:29:54.418Z,5.37
2023-02-21T08:32:21.373Z,6.20
2023-02-21T08:34:49.416Z,5.50
2023-02-21T08:37:20.175Z,4.70
2023-02-21T08:39:52.217Z,4.73
2023-02-21T08:42:22.374Z,5.07
2023-02-21T08:44:49.300Z,6.00
2023-02-21T08:47:18.387Z,5.23
2023-02-21T08:49:47.571Z,5.27
2023-02-21T08:52:19.271Z,5.83
2023-02-21T08:54:46.395Z,4.30
2023-02-21T08:57:13.838Z,6.10
2023-02-21T08:59:42.997Z,6.20
2023-02-21T09:02:26.817Z,5.70
2023-02-21T09:04:54.476Z,4.33
2023-02-21T09:07:24.014Z,6.83
2023-02-21T09:09:51.060Z,4.87
2023-02-21T09:12:18.344Z,5.60
2023-02-21T09:14:45.280Z,5.87
2023-02-21T09:17:13.947Z,6.90
2023-02-21T09:19:41.129Z,6.50
2023-02-21T09:22:09.801Z,6.10
2023-02-21T09:24:37.480Z,6.70
2023-02-21T09:27:05.323Z,6.57
2023-02-21T09:29:45.517Z,5.27
2023-02-21T09:32:14.497Z,4.90
2023-02-21T09:34:41.525Z,4.87
2023-02-21T09:37:08.452Z,5.57
2023-02-21T09:39:39.300Z,5.70
2023-02-21T09:42:06.476Z,5.30
2023-02-21T09:44:33.469Z,6.00
2023-02-21T09:47:06.091Z,6.17
2023-02-21T09:49:43.526Z,5.20
2023-02-21T09:52:31.891Z,5.23
2023-02-21T09:55:05.681Z,6.03
2023-02-21T09:57:32.604Z,5.50
2023-02-21T09:59:59.954Z,5.40
2023-02-21T10:02:48.951Z,5.50
2023-02-21T10:05:31.333Z,4.87
2023-02-21T10:08:38.348Z,6.00
2023-02-21T10:11:26.337Z,5.83
2023-02-21T10:14:05.951Z,4.77
2023-02-21T10:16:44.943Z,6.10
2023-02-21T10:19:36.295Z,5.40
2023-02-21T10:22:15.475Z,5.90
2023-02-21T10:24:42.487Z,5.57
2023-02-21T10:27:19.694Z,6.27
2023-02-21T10:30:10.869Z,6.43
2023-02-21T10:32:38.533Z,5.43
2023-02-21T10:35:05.961Z,5.10
2023-02-21T10:37:51.639Z,5.90
2023-02-21T10:40:37.631Z,6.70
2023-02-21T10:43:38.378Z,5.20
2023-02-21T10:46:21.976Z,5.80
2023-02-21T10:48:54.041Z,5.67
2023-02-21T10:51:33.910Z,6.67
2023-02-21T10:54:24.960Z,6.20
2023-02-21T10:56:53.995Z,5.57
2023-02-21T10:59:28.657Z,5.87
2023-02-21T11:01:56.737Z,5.90
2023-02-21T11:04:34.680Z,5.70
2023-02-21T11:07:08.768Z,6.17
2023-02-21T11:09:45.559Z,6.43
2023-02-21T11:12:31.668Z,5.20
2023-02-21T11:14:58.413Z,5.00
2023-02-21T11:17:32.175Z,6.30
2023-02-21T11:20:18.916Z,5.40
2023-02-21T11:22:48.820Z,5.23
2023-02-21T11:25:28.533Z,6.10
2023-02-21T11:28:19.018Z,6.13
2023-02-21T11:31:01.232Z,6.43
2023-02-21T11:33:29.270Z,5.63
2023-02-21T11:36:15.562Z,5.70
2023-02-21T11:39:14.567Z,5.27
2023-02-21T11:41:55.720Z,6.33
2023-02-21T11:44:40.524Z,5.17
2023-02-21T11:47:35.170Z,5.60
2023-02-21T11:50:15.960Z,5.70
2023-02-21T11:53:06.575Z,5.00
2023-02-21T11:55:35.105Z,5.30
2023-02-21T11:58:27.011Z,7.70
2023-02-21T12:01:09.713Z,5.50
2023-02-21T12:04:32.708Z,6.43
2023-02-21T12:07:30.844Z,5.17
2023-02-21T12:10:34.982Z,6.00
2023-02-21T12:13:22.704Z,5.90
2023-02-21T12:16:23.968Z,5.40
2023-02-21T12:19:26.509Z,4.93
2023-02-21T12:22:20.829Z,5.10
2023-02-21T12:25:25.436Z,4.70
2023-02-21T12:28:27.112Z,5.40
2023-02-21T12:31:24.844Z,4.60
2023-02-21T12:34:18.632Z,5.43
2023-02-21T12:37:17.023Z,7.30
2023-02-21T12:40:27.026Z,5.20
2023-02-21T12:43:20.022Z,4.67
2023-02-21T12:46:15.604Z,5.17
2023-02-21T12:48:55.811Z,5.60
2023-02-21T12:51:30.902Z,6.07
2023-02-21T12:54:06.446Z,5.00
2023-02-21T12:56:49.795Z,4.43
2023-02-21T12:59:33.097Z,5.73
2023-02-21T13:02:29.775Z,5.20
2023-02-21T13:05:05.166Z,4.80
2023-02-21T13:07:54.055Z,5.53
2023-02-21T13:10:32.031Z,6.27
2023-02-21T13:13:14.637Z,5.40
2023-02-21T13:15:43.688Z,5.03
2023-02-21T13:18:23.569Z,5.03
2023-02-21T13:21:49.786Z,5.73
2023-02-21T13:24:58.046Z,6.50
2023-02-21T13:28:07.219Z,4.93
2023-02-21T13:30:49.007Z,5.67
2023-02-21T13:33:38.528Z,5.67
2023-02-21T13:36:39.444Z,3.87
2023-02-21T13:39:09.233Z,5.10
2023-02-21T13:42:04.122Z,5.63
2023-02-21T13:44:45.357Z,5.50
2023-02-21T13:47:15.953Z,4.93
2023-02-21T13:49:50.884Z,5.80
2023-02-21T13:52:23.424Z,5.67
2023-02-21T13:55:14.988Z,5.37
2023-02-21T13:57:46.112Z,4.37
2023-02-21T14:00:24.622Z,5.93
2023-02-21T14:03:18.142Z,4.83
2023-02-21T14:05:45.040Z,4.90
2023-02-21T14:08:32.532Z,5.30
2023-02-21T14:11:05.108Z,5.20
2023-02-21T14:13:37.970Z,5.30
2023-02-21T14:16:07.880Z,4.60
2023-02-21T14:21:49.447Z,6.43
2023-02-21T14:24:23.239Z,4.97
2023-02-21T14:26:57.598Z,5.73
2023-02-21T14:30:02.384Z,6.23
2023-02-21T14:32:37.661Z,5.23
2023-02-21T14:35:16.656Z,5.77
2023-02-21T14:37:57.869Z,5.30
2023-02-21T14:40:45.260Z,5.87
2023-02-21T14:43:26.851Z,6.47
2023-02-21T14:46:37.981Z,5.57
2023-02-21T14:50:02.789Z,6.33
2023-02-21T14:53:05.824Z,5.90
2023-02-21T14:56:17.567Z,5.50
2023-02-21T14:59:18.019Z,6.47
2023-02-21T15:02:43.489Z,6.50
2023-02-21T15:05:42.609Z,6.23
2023-02-21T15:08:25.984Z,6.20
2023-02-21T15:11:00.104Z,5.00
2023-02-21T15:13:35.430Z,6.33
2023-02-21T15:16:14.258Z,6.80
2023-02-21T15:19:00.045Z,5.87
2023-02-21T15:21:27.446Z,6.17
2023-02-21T15:24:12.957Z,6.93
2023-02-21T15:26:39.806Z,6.30
2023-02-21T15:29:11.626Z,5.97
2023-02-21T15:31:55.081Z,5.53
2023-02-21T15:34:27.145Z,5.40
2023-02-21T15:37:24.728Z,5.27
2023-02-21T15:40:00.271Z,6.60
2023-02-21T15:42:28.769Z,4.90
2023-02-21T15:45:12.591Z,5.27
2023-02-21T15:47:39.551Z,5.07
2023-02-21T15:50:24.795Z,5.80
2023-02-21T15:52:53.352Z,6.00
2023-02-21T15:55:20.190Z,5.63
2023-02-21T15:58:14.377Z,4.40
2023-02-21T16:00:44.346Z,5.10
2023-02-21T16:03:35.984Z,6.47
2023-02-21T16:06:23.095Z,4.80
2023-02-21T16:09:02.024Z,5.07
2023-02-21T16:11:46.909Z,6.30
2023-02-21T16:14:24.636Z,5.90
2023-02-21T16:17:06.830Z,5.90
2023-02-21T16:19:34.434Z,6.03
2023-02-21T16:22:24.133Z,5.33
2023-02-21T16:25:05.610Z,5.60
2023-02-21T16:27:32.554Z,6.43
2023-02-21T16:29:59.440Z,5.53
2023-02-21T16:32:26.384Z,5.60
2023-02-21T16:34:54.934Z,7.33
2023-02-21T16:37:22.965Z,5.97
2023-02-21T16:39:49.925Z,6.40
2023-02-21T16:42:16.902Z,5.63
2023-02-21T16:44:44.032Z,6.53
2023-02-21T16:47:16.256Z,5.60
2023-02-21T16:49:44.371Z,6.90
2023-02-21T16:52:16.259Z,6.17
2023-02-21T16:54:43.623Z,5.47
2023-02-21T16:57:11.334Z,5.57
2023-02-21T16:59:38.613Z,5.77
2023-02-21T17:02:06.646Z,5.93
2023-02-21T17:04:33.903Z,5.87
2023-02-21T17:07:09.597Z,6.10
2023-02-21T17:09:39.422Z,5.13
2023-02-21T17:12:07.629Z,6.83
2023-02-21T17:14:35.203Z,7.20
2023-02-21T17:17:02.108Z,6.23
2023-02-21T17:19:28.988Z,7.07
2023-02-21T17:21:58.165Z,6.10
2023-02-21T17:24:25.080Z,6.13
2023-02-21T17:26:53.466Z,5.47
2023-02-21T17:29:21.203Z,5.73
2023-02-21T17:31:54.212Z,6.03
2023-02-21T17:34:21.994Z,5.97
2023-02-21T17:36:52.075Z,5.97
2023-02-21T17:39:20.753Z,5.70
2023-02-21T17:41:49.278Z,7.50
2023-02-21T17:44:18.077Z,4.90
2023-02-21T17:46:54.258Z,6.50
2023-02-21T17:49:24.968Z,6.40
2023-02-21T17:51:52.637Z,6.63
2023-02-21T17:54:23.646Z,6.43
2023-02-21T17:56:50.680Z,6.00
2023-02-21T17:59:19.402Z,5.93
2023-02-21T18:01:46.738Z,6.30
2023-02-21T18:04:14.324Z,6.97
2023-02-21T18:06:42.199Z,6.83
2023-02-21T18:09:09.718Z,6.43
2023-02-21T18:11:36.994Z,6.37
2023-02-21T18:14:04.634Z,6.17
2023-02-21T18:16:31.983Z,6.40
2023-02-21T18:18:58.979Z,7.00
2023-02-21T18:21:27.418Z,5.77
2023-02-21T18:23:54.574Z,7.03
2023-02-21T18:26:21.948Z,6.23
2023-02-21T18:28:49.185Z,6.73
2023-02-21T18:31:18.805Z,6.17
2023-02-21T18:33:46.241Z,6.37
2023-02-21T18:36:13.203Z,5.80
2023-02-21T18:38:41.089Z,6.83
2023-02-21T18:41:14.595Z,6.20
2023-02-21T18:43:43.285Z,6.40
2023-02-21T18:46:13.732Z,5.40
2023-02-21T18:48:46.454Z,6.20
2023-02-21T18:51:16.648Z,8.00
2023-02-21T18:53:44.548Z,7.30
2023-02-21T18:56:14.923Z,7.33
2023-02-21T18:58:41.814Z,6.27
2023-02-21T19:01:11.489Z,7.00
2023-02-21T19:03:38.764Z,6.37
2023-02-21T19:06:16.257Z,5.13
2023-02-21T19:08:44.878Z,5.43
2023-02-21T19:11:12.980Z,7.83
2023-02-21T19:13:39.966Z,6.37
2023-02-21T19:16:07.126Z,6.63
2023-02-21T19:18:34.624Z,6.07
2023-02-21T19:21:01.506Z,5.93
2023-02-21T19:23:28.416Z,6.40
2023-02-21T19:25:55.879Z,6.93
2023-02-21T19:28:23.978Z,7.80
2023-02-21T19:30:51.280Z,6.20
2023-02-21T19:33:18.333Z,6.40
2023-02-21T19:35:45.940Z,7.20
2023-02-21T19:38:12.821Z,7.40
2023-02-21T19:40:39.732Z,6.33
2023-02-21T19:43:06.870Z,7.60
2023-02-21T19:45:34.083Z,7.30
2023-02-21T19:48:01.219Z,7.70
2023-02-21T19:50:30.641Z,6.43
2023-02-21T19:52:58.814Z,7.53
2023-02-21T19:55:28.912Z,6.33
2023-02-21T19:57:55.820Z,7.23
2023-02-21T20:00:25.979Z,7.73
2023-02-21T20:02:53.582Z,8.87
2023-02-21T20:05:20.493Z,8.30
2023-02-21T20:07:47.387Z,8.93
2023-02-21T20:10:15.588Z,9.60
2023-02-21T20:12:44.087Z,11.50
2023-02-21T20:15:11.650Z,11.00
2023-02-21T20:17:39.206Z,10.30
2023-02-21T20:20:07.517Z,10.77
2023-02-21T20:22:34.455Z,8.13
2023-02-21T20:25:01.987Z,7.87
2023-02-21T20:27:29.269Z,7.50
2023-02-21T20:29:56.487Z,7.33
2023-02-21T20:32:23.792Z,6.93
2023-02-21T20:34:54.208Z,7.10
2023-02-21T20:37:21.876Z,9.83
2023-02-21T20:39:50.108Z,6.33
2023-02-21T20:42:17.683Z,6.53
2023-02-21T20:44:45.230Z,6.87
2023-02-21T20:47:12.273Z,6.77
2023-02-21T20:49:42.856Z,7.73
2023-02-21T20:52:09.756Z,8.57
2023-02-21T20:54:36.651Z,8.60
2023-02-21T20:57:04.261Z,10.40
2023-02-21T20:59:37.459Z,8.87
2023-02-21T21:02:05.627Z,7.20
2023-02-21T21:04:39.366Z,7.37
2023-02-21T21:07:13.981Z,7.47
2023-02-21T21:09:41.153Z,6.67
2023-02-21T21:12:16.037Z,7.10
2023-02-21T21:14:45.398Z,7.90
2023-02-21T21:17:19.145Z,8.47
2023-02-21T21:19:48.556Z,6.53
2023-02-21T21:22:20.050Z,6.93
2023-02-21T21:24:47.330Z,7.47
2023-02-21T21:27:15.371Z,5.50
2023-02-21T21:29:45.437Z,6.80
2023-02-21T21:32:19.785Z,6.03
2023-02-21T21:34:52.781Z,5.90
2023-02-21T21:37:23.913Z,5.83
2023-02-21T21:39:55.069Z,6.10
2023-02-21T21:42:26.211Z,5.80
2023-02-21T21:44:55.530Z,5.30
2023-02-21T21:47:32.081Z,5.87
2023-02-21T21:50:02.082Z,6.97
2023-02-21T21:52:28.991Z,4.73
2023-02-21T21:54:56.957Z,5.60
2023-02-21T21:57:27.177Z,6.30
2023-02-21T21:59:54.390Z,6.20
2023-02-21T22:02:22.171Z,6.13
2023-02-21T22:04:49.109Z,5.90
2023-02-21T22:07:17.476Z,4.80
2023-02-21T22:09:44.419Z,6.47
2023-02-21T22:12:18.070Z,6.07
2023-02-21T22:14:44.936Z,5.27
2023-02-21T22:17:11.815Z,6.03
2023-02-21T22:19:38.696Z,5.50
2023-02-21T22:22:08.228Z,5.17
2023-02-21T22:24:35.347Z,4.87
2023-02-21T22:27:02.569Z,5.87
2023-02-21T22:29:29.457Z,5.80
2023-02-21T22:31:56.410Z,4.87
2023-02-21T22:34:23.470Z,5.20
2023-02-21T22:36:57.656Z,5.10
2023-02-21T22:39:26.006Z,5.60
2023-02-21T22:41:53.524Z,6.60
2023-02-21T22:44:24.658Z,5.10
2023-02-21T22:47:00.491Z,6.27
2023-02-21T22:49:27.666Z,5.37
2023-02-21T22:51:54.852Z,5.33
2023-02-21T22:54:21.740Z,6.83
2023-02-21T22:56:51.758Z,5.00
2023-02-21T22:59:20.853Z,5.90
2023-02-21T23:01:47.791Z,7.00
2023-02-21T23:04:25.332Z,5.53
2023-02-21T23:06:58.826Z,5.60
2023-02-21T23:09:28.706Z,5.27
2023-02-21T23:11:59.967Z,4.90
2023-02-21T23:14:31.467Z,5.50
2023-02-21T23:16:59.354Z,5.20
2023-02-21T23:19:29.137Z,6.40
2023-02-21T23:21:57.828Z,5.20
2023-02-21T23:24:25.427Z,4.90
2023-02-21T23:26:54.554Z,5.13
2023-02-21T23:29:25.205Z,5.93
2023-02-21T23:31:56.753Z,4.90
2023-02-21T23:34:23.758Z,5.13
2023-02-21T23:36:50.632Z,5.73
2023-02-21T23:39:17.504Z,4.83
2023-02-21T23:41:48.613Z,4.20
2023-02-21T23:44:16.215Z,4.37
2023-02-21T23:46:44.992Z,4.67
2023-02-21T23:49:15.681Z,6.10
2023-02-21T23:51:44.007Z,3.93
2023-02-21T23:54:13.609Z,5.43
2023-02-21T23:56:40.657Z,5.63
2023-02-21T23:59:08.064Z,5.00
